createdAt,value
2023-07-17T00:00:17.734Z,16.52
2023-07-17T00:01:18.002Z,16.42
2023-07-17T00:02:17.699Z,16.42
2023-07-17T00:03:17.813Z,16.37
2023-07-17T00:04:17.745Z,16.32
2023-07-17T00:05:17.705Z,16.18
2023-07-17T00:06:17.718Z,16.16
2023-07-17T00:07:17.667Z,16.32
2023-07-17T00:08:17.674Z,16.25
2023-07-17T00:09:17.694Z,16.32
2023-07-17T00:10:17.682Z,16.28
2023-07-17T00:11:18.006Z,16.25
2023-07-17T00:12:17.675Z,16.32
2023-07-17T00:13:17.671Z,16.25
2023-07-17T00:14:18.739Z,16.17
2023-07-17T00:15:17.636Z,16.21
2023-07-17T00:16:17.644Z,16.17
2023-07-17T00:17:17.671Z,16.14
2023-07-17T00:18:17.666Z,16.26
2023-07-17T00:19:17.630Z,16.02
2023-07-17T00:20:17.617Z,16.08
2023-07-17T00:21:17.815Z,16.08
2023-07-17T00:22:17.594Z,16.00
2023-07-17T00:23:17.633Z,16.06
2023-07-17T00:24:17.591Z,16.10
2023-07-17T00:25:17.580Z,16.16
2023-07-17T00:26:17.637Z,16.14
2023-07-17T00:27:17.615Z,16.05
2023-07-17T00:28:17.601Z,16.06
2023-07-17T00:29:17.604Z,16.02
2023-07-17T00:30:17.533Z,15.96
2023-07-17T00:31:17.752Z,15.95
2023-07-17T00:32:17.527Z,15.91
2023-07-17T00:33:17.555Z,16.00
2023-07-17T00:34:51.333Z,15.96
2023-07-17T00:35:17.505Z,15.99
2023-07-17T00:36:17.504Z,15.98
2023-07-17T00:37:17.534Z,16.05
2023-07-17T00:38:17.540Z,16.02
2023-07-17T00:39:17.538Z,16.25
2023-07-17T00:40:17.523Z,16.14
2023-07-17T00:41:17.777Z,16.17
2023-07-17T00:42:17.497Z,16.29
2023-07-17T00:43:17.498Z,16.32
2023-07-17T00:44:17.501Z,16.32
2023-07-17T00:45:17.497Z,16.21
2023-07-17T00:46:17.504Z,16.21
2023-07-17T00:47:17.473Z,16.09
2023-07-17T00:48:17.467Z,16.02
2023-07-17T00:49:17.472Z,16.00
2023-07-17T00:50:18.474Z,15.93
2023-07-17T00:51:17.760Z,15.90
2023-07-17T00:52:17.440Z,15.72
2023-07-17T00:53:17.446Z,15.59
2023-07-17T00:54:17.457Z,15.51
2023-07-17T00:55:17.409Z,15.38
2023-07-17T00:56:17.400Z,15.36
2023-07-17T00:57:17.421Z,15.35
2023-07-17T00:58:17.404Z,15.41
2023-07-17T00:59:17.395Z,15.41
2023-07-17T01:00:17.390Z,15.47
2023-07-17T01:01:17.800Z,15.59
2023-07-17T01:02:17.413Z,15.65
2023-07-17T01:03:17.445Z,15.69
2023-07-17T01:04:17.427Z,15.65
2023-07-17T01:05:17.397Z,15.63
2023-07-17T01:06:17.338Z,15.60
2023-07-17T01:07:17.346Z,15.54
2023-07-17T01:08:17.348Z,15.59
2023-07-17T01:09:17.385Z,15.50
2023-07-17T01:10:17.324Z,15.35
2023-07-17T01:11:17.592Z,15.30
2023-07-17T01:12:17.309Z,15.29
2023-07-17T01:13:17.319Z,15.19
2023-07-17T01:14:17.323Z,15.19
2023-07-17T01:15:17.319Z,15.22
2023-07-17T01:16:17.335Z,15.19
2023-07-17T01:17:17.343Z,15.29
2023-07-17T01:18:17.313Z,15.32
2023-07-17T01:19:17.300Z,15.26
2023-07-17T01:20:17.297Z,15.41
2023-07-17T01:21:17.620Z,15.41
2023-07-17T01:22:17.303Z,15.41
2023-07-17T01:23:17.255Z,15.35
2023-07-17T01:24:17.322Z,15.29
2023-07-17T01:25:17.301Z,15.23
2023-07-17T01:26:17.258Z,15.11
2023-07-17T01:27:17.280Z,15.04
2023-07-17T01:28:17.349Z,14.99
2023-07-17T01:29:17.282Z,14.93
2023-07-17T01:30:18.253Z,14.89
2023-07-17T01:31:17.480Z,14.90
2023-07-17T01:32:17.244Z,14.96
2023-07-17T01:33:17.225Z,14.90
2023-07-17T01:34:17.254Z,14.95
2023-07-17T01:35:17.228Z,14.90
2023-07-17T01:36:17.217Z,14.95
2023-07-17T01:37:17.200Z,14.93
2023-07-17T01:38:17.215Z,14.92
2023-07-17T01:39:17.209Z,14.90
2023-07-17T01:40:17.233Z,14.95
2023-07-17T01:41:17.348Z,14.99
2023-07-17T01:42:17.177Z,14.85
2023-07-17T01:43:17.160Z,14.78
2023-07-17T01:44:17.168Z,14.97
2023-07-17T01:45:17.204Z,14.97
2023-07-17T01:46:17.226Z,15.04
2023-07-17T01:47:17.143Z,15.01
2023-07-17T01:48:17.142Z,15.01
2023-07-17T01:49:17.134Z,15.04
2023-07-17T01:50:17.128Z,15.08
2023-07-17T01:51:17.545Z,15.04
2023-07-17T01:52:17.140Z,15.19
2023-07-17T01:53:17.105Z,14.93
2023-07-17T01:54:17.098Z,14.96
2023-07-17T01:55:17.139Z,15.03
2023-07-17T01:56:17.161Z,14.82
2023-07-17T01:57:17.142Z,14.73
2023-07-17T01:58:17.086Z,14.77
2023-07-17T01:59:17.768Z,14.82
2023-07-17T02:00:17.066Z,14.85
2023-07-17T02:01:17.333Z,14.86
2023-07-17T02:02:17.099Z,14.90
2023-07-17T02:03:17.079Z,14.87
2023-07-17T02:04:17.100Z,14.79
2023-07-17T02:05:17.185Z,14.83
2023-07-17T02:06:17.040Z,14.93
2023-07-17T02:07:17.079Z,14.87
2023-07-17T02:08:17.045Z,14.93
2023-07-17T02:09:17.037Z,14.95
2023-07-17T02:10:18.023Z,14.66
2023-07-17T02:11:17.327Z,14.66
2023-07-17T02:12:17.034Z,14.61
2023-07-17T02:13:17.039Z,14.59
2023-07-17T02:14:16.987Z,14.44
2023-07-17T02:15:16.991Z,14.49
2023-07-17T02:16:17.008Z,14.53
2023-07-17T02:17:17.008Z,14.49
2023-07-17T02:18:17.012Z,14.45
2023-07-17T02:19:16.969Z,14.55
2023-07-17T02:20:16.998Z,14.56
2023-07-17T02:21:17.193Z,14.63
2023-07-17T02:22:16.938Z,14.59
2023-07-17T02:23:16.964Z,14.63
2023-07-17T02:24:16.989Z,14.74
2023-07-17T02:25:16.919Z,14.67
2023-07-17T02:26:16.932Z,14.59
2023-07-17T02:27:17.919Z,14.53
2023-07-17T02:28:16.935Z,14.55
2023-07-17T02:29:16.929Z,14.59
2023-07-17T02:30:16.884Z,14.58
2023-07-17T02:31:17.379Z,14.44
2023-07-17T02:32:16.947Z,14.38
2023-07-17T02:33:16.882Z,14.44
2023-07-17T02:34:16.875Z,14.44
2023-07-17T02:35:16.921Z,14.53
2023-07-17T02:36:16.896Z,14.48
2023-07-17T02:37:16.857Z,14.49
2023-07-17T02:38:16.872Z,14.51
2023-07-17T02:39:16.841Z,14.51
2023-07-17T02:40:16.892Z,14.53
2023-07-17T02:41:17.377Z,14.52
2023-07-17T02:42:16.851Z,14.56
2023-07-17T02:43:16.836Z,14.56
2023-07-17T02:44:16.830Z,14.58
2023-07-17T02:45:16.867Z,14.48
2023-07-17T02:46:16.903Z,14.53
2023-07-17T02:47:16.823Z,14.40
2023-07-17T02:48:16.831Z,14.45
2023-07-17T02:49:16.815Z,14.46
2023-07-17T02:50:16.814Z,14.36
2023-07-17T02:51:17.133Z,14.41
2023-07-17T02:52:16.770Z,14.48
2023-07-17T02:53:16.783Z,14.40
2023-07-17T02:54:16.794Z,14.33
2023-07-17T02:55:16.790Z,14.36
2023-07-17T02:56:16.779Z,14.33
2023-07-17T02:57:16.792Z,14.45
2023-07-17T02:58:16.763Z,14.45
2023-07-17T02:59:16.750Z,14.38
2023-07-17T03:00:16.798Z,14.45
2023-07-17T03:01:17.196Z,14.46
2023-07-17T03:02:16.758Z,14.37
2023-07-17T03:03:16.732Z,14.36
2023-07-17T03:04:16.757Z,14.33
2023-07-17T03:05:16.737Z,14.30
2023-07-17T03:06:16.719Z,14.26
2023-07-17T03:07:16.734Z,14.26
2023-07-17T03:08:16.686Z,14.21
2023-07-17T03:09:16.697Z,14.16
2023-07-17T03:10:16.695Z,14.19
2023-07-17T03:11:16.900Z,14.21
2023-07-17T03:12:16.691Z,14.19
2023-07-17T03:13:16.687Z,14.27
2023-07-17T03:14:16.683Z,14.31
2023-07-17T03:15:16.651Z,14.18
2023-07-17T03:16:16.723Z,14.11
2023-07-17T03:17:16.700Z,14.22
2023-07-17T03:18:16.654Z,14.27
2023-07-17T03:19:16.646Z,14.23
2023-07-17T03:20:16.649Z,14.38
2023-07-17T03:21:17.039Z,14.27
2023-07-17T03:22:16.631Z,14.28
2023-07-17T03:23:16.645Z,14.28
2023-07-17T03:24:16.632Z,14.19
2023-07-17T03:25:16.610Z,14.33
2023-07-17T03:26:16.606Z,14.27
2023-07-17T03:27:16.586Z,14.16
2023-07-17T03:28:16.611Z,14.31
2023-07-17T03:29:16.606Z,14.40
2023-07-17T03:30:16.586Z,14.36
2023-07-17T03:31:16.839Z,14.38
2023-07-17T03:32:16.626Z,14.58
2023-07-17T03:33:16.704Z,14.53
2023-07-17T03:34:16.537Z,14.55
2023-07-17T03:35:16.569Z,14.51
2023-07-17T03:36:16.543Z,14.58
2023-07-17T03:37:16.550Z,14.59
2023-07-17T03:38:16.544Z,14.56
2023-07-17T03:39:16.497Z,14.56
2023-07-17T03:40:16.503Z,14.55
2023-07-17T03:41:16.689Z,14.53
2023-07-17T03:42:16.537Z,14.56
2023-07-17T03:43:16.486Z,14.55
2023-07-17T03:44:16.463Z,14.53
2023-07-17T03:45:16.462Z,14.59
2023-07-17T03:46:16.485Z,14.45
2023-07-17T03:47:16.591Z,14.49
2023-07-17T03:48:16.461Z,14.48
2023-07-17T03:49:16.427Z,14.56
2023-07-17T03:50:16.474Z,14.59
2023-07-17T03:51:16.538Z,14.41
2023-07-17T03:52:16.524Z,14.52
2023-07-17T03:53:16.414Z,14.41
2023-07-17T03:54:16.461Z,14.53
2023-07-17T03:55:16.416Z,14.38
2023-07-17T03:56:16.416Z,14.34
2023-07-17T03:57:16.416Z,14.21
2023-07-17T03:58:16.401Z,14.33
2023-07-17T03:59:16.424Z,14.19
2023-07-17T04:00:16.394Z,14.26
2023-07-17T04:01:16.815Z,14.13
2023-07-17T04:02:16.406Z,14.26
2023-07-17T04:03:16.453Z,14.40
2023-07-17T04:04:16.397Z,14.26
2023-07-17T04:05:16.378Z,14.30
2023-07-17T04:06:16.364Z,14.28
2023-07-17T04:07:16.394Z,14.21
2023-07-17T04:08:16.338Z,14.21
2023-07-17T04:09:16.445Z,14.30
2023-07-17T04:10:16.385Z,14.33
2023-07-17T04:11:16.579Z,14.38
2023-07-17T04:12:16.396Z,14.37
2023-07-17T04:13:16.327Z,14.46
2023-07-17T04:14:16.299Z,14.40
2023-07-17T04:15:16.331Z,14.40
2023-07-17T04:16:16.334Z,14.44
2023-07-17T04:17:16.371Z,14.37
2023-07-17T04:18:16.292Z,14.48
2023-07-17T04:19:16.290Z,14.37
2023-07-17T04:20:16.282Z,14.34
2023-07-17T04:21:16.374Z,14.36
2023-07-17T04:22:16.261Z,14.37
2023-07-17T04:23:16.266Z,14.30
2023-07-17T04:24:16.335Z,14.16
2023-07-17T04:25:16.255Z,14.23
2023-07-17T04:26:16.254Z,14.15
2023-07-17T04:27:16.272Z,14.21
2023-07-17T04:28:16.229Z,14.18
2023-07-17T04:29:16.235Z,14.27
2023-07-17T04:30:16.263Z,14.26
2023-07-17T04:31:16.403Z,14.31
2023-07-17T04:32:16.255Z,14.41
2023-07-17T04:33:16.205Z,14.49
2023-07-17T04:34:16.189Z,14.44
2023-07-17T04:35:16.205Z,14.44
2023-07-17T04:36:16.169Z,14.55
2023-07-17T04:37:16.244Z,14.63
2023-07-17T04:38:16.174Z,14.67
2023-07-17T04:39:16.144Z,14.70
2023-07-17T04:40:16.914Z,14.83
2023-07-17T04:41:16.274Z,14.78
2023-07-17T04:42:16.139Z,14.86
2023-07-17T04:43:16.188Z,14.89
2023-07-17T04:44:16.201Z,14.74
2023-07-17T04:45:16.119Z,14.71
2023-07-17T04:46:16.152Z,14.85
2023-07-17T04:47:16.155Z,14.87
2023-07-17T04:48:16.194Z,15.03
2023-07-17T04:49:16.132Z,15.30
2023-07-17T04:50:16.131Z,15.68
2023-07-17T04:51:16.248Z,15.96
2023-07-17T04:52:16.096Z,16.16
2023-07-17T04:53:16.086Z,16.16
2023-07-17T04:54:16.090Z,16.28
2023-07-17T04:55:16.091Z,16.21
2023-07-17T04:56:16.078Z,16.16
2023-07-17T04:57:16.065Z,16.14
2023-07-17T04:58:16.039Z,16.05
2023-07-17T04:59:16.081Z,16.09
2023-07-17T05:00:16.078Z,16.03
2023-07-17T05:01:16.471Z,16.06
2023-07-17T05:02:16.032Z,16.06
2023-07-17T05:03:16.238Z,16.09
2023-07-17T05:04:16.087Z,16.06
2023-07-17T05:05:16.060Z,16.13
2023-07-17T05:06:15.999Z,16.18
2023-07-17T05:07:16.021Z,16.14
2023-07-17T05:08:15.995Z,16.14
2023-07-17T05:09:16.005Z,16.08
2023-07-17T05:10:16.132Z,15.96
2023-07-17T05:11:16.127Z,15.93
2023-07-17T05:12:15.990Z,15.78
2023-07-17T05:13:16.000Z,15.85
2023-07-17T05:14:15.959Z,15.80
2023-07-17T05:15:16.149Z,15.78
2023-07-17T05:16:16.014Z,15.80
2023-07-17T05:17:15.955Z,15.84
2023-07-17T05:18:15.950Z,15.87
2023-07-17T05:19:15.947Z,15.95
2023-07-17T05:20:15.981Z,15.98
2023-07-17T05:21:16.340Z,16.09
2023-07-17T05:22:15.935Z,16.08
2023-07-17T05:23:15.961Z,16.10
2023-07-17T05:24:15.902Z,16.14
2023-07-17T05:25:15.926Z,16.24
2023-07-17T05:26:15.935Z,16.33
2023-07-17T05:27:15.893Z,16.32
2023-07-17T05:28:15.896Z,16.32
2023-07-17T05:29:15.864Z,16.44
2023-07-17T05:30:15.928Z,16.46
2023-07-17T05:31:16.137Z,16.52
2023-07-17T05:32:15.871Z,16.59
2023-07-17T05:33:15.849Z,16.61
2023-07-17T05:34:15.859Z,16.64
2023-07-17T05:35:19.183Z,16.65
2023-07-17T05:36:15.842Z,16.67
2023-07-17T05:37:15.840Z,16.72
2023-07-17T05:38:15.833Z,16.77
2023-07-17T05:39:15.825Z,16.91
2023-07-17T05:40:15.860Z,16.83
2023-07-17T05:41:15.994Z,16.87
2023-07-17T05:42:15.843Z,16.91
2023-07-17T05:43:15.794Z,16.72
2023-07-17T05:44:15.810Z,16.69
2023-07-17T05:45:15.815Z,16.69
2023-07-17T05:46:15.813Z,16.72
2023-07-17T05:47:15.795Z,16.76
2023-07-17T05:48:15.788Z,16.87
2023-07-17T05:49:15.787Z,16.88
2023-07-17T05:50:15.774Z,16.73
2023-07-17T05:51:16.017Z,16.59
2023-07-17T05:52:15.773Z,16.59
2023-07-17T05:53:15.779Z,16.70
2023-07-17T05:54:15.759Z,16.64
2023-07-17T05:55:15.779Z,16.59
2023-07-17T05:56:15.742Z,16.64
2023-07-17T05:57:15.708Z,16.62
2023-07-17T05:58:15.716Z,16.62
2023-07-17T05:59:15.737Z,16.62
2023-07-17T06:00:15.727Z,16.58
2023-07-17T06:01:15.923Z,16.51
2023-07-17T06:02:15.692Z,16.58
2023-07-17T06:03:15.720Z,16.62
2023-07-17T06:04:15.739Z,16.58
2023-07-17T06:05:15.806Z,16.67
2023-07-17T06:06:15.666Z,16.64
2023-07-17T06:07:15.681Z,16.58
2023-07-17T06:08:15.826Z,16.76
2023-07-17T06:09:15.656Z,16.82
2023-07-17T06:10:15.674Z,16.79
2023-07-17T06:11:16.013Z,16.82
2023-07-17T06:12:15.675Z,16.91
2023-07-17T06:13:17.239Z,16.95
2023-07-17T06:14:15.653Z,16.95
2023-07-17T06:15:15.792Z,17.04
2023-07-17T06:16:15.705Z,17.06
2023-07-17T06:17:15.668Z,17.02
2023-07-17T06:18:15.749Z,17.24
2023-07-17T06:19:16.868Z,17.25
2023-07-17T06:20:17.542Z,17.31
2023-07-17T06:21:16.126Z,17.25
2023-07-17T06:22:15.734Z,17.34
2023-07-17T06:23:15.703Z,17.45
2023-07-17T06:24:15.697Z,17.56
2023-07-17T06:25:15.722Z,17.62
2023-07-17T06:26:15.680Z,17.71
2023-07-17T06:27:15.661Z,17.83
2023-07-17T06:28:15.672Z,17.86
2023-07-17T06:29:15.558Z,17.84
2023-07-17T06:30:15.595Z,17.83
2023-07-17T06:31:15.891Z,17.93
2023-07-17T06:32:15.644Z,18.17
2023-07-17T06:33:15.600Z,18.33
2023-07-17T06:34:15.566Z,18.54
2023-07-17T06:35:15.554Z,18.57
2023-07-17T06:36:15.566Z,18.67
2023-07-17T06:37:15.563Z,18.76
2023-07-17T06:38:15.540Z,18.83
2023-07-17T06:39:15.917Z,18.93
2023-07-17T06:40:15.552Z,18.98
2023-07-17T06:41:15.658Z,19.12
2023-07-17T06:42:15.509Z,19.27
2023-07-17T06:43:15.509Z,19.20
2023-07-17T06:44:15.489Z,19.19
2023-07-17T06:45:15.514Z,19.32
2023-07-17T06:46:15.544Z,19.41
2023-07-17T06:47:29.686Z,19.50
2023-07-17T06:48:16.521Z,19.54
2023-07-17T06:49:15.516Z,19.70
2023-07-17T06:50:15.463Z,19.94
2023-07-17T06:51:15.475Z,20.05
2023-07-17T06:52:15.429Z,20.17
2023-07-17T06:53:15.435Z,20.26
2023-07-17T06:54:15.449Z,20.18
2023-07-17T06:55:15.449Z,20.26
2023-07-17T06:56:15.583Z,20.11
2023-07-17T06:57:15.421Z,20.14
2023-07-17T06:58:15.457Z,20.22
2023-07-17T06:59:15.417Z,20.18
2023-07-17T07:00:15.382Z,20.29
2023-07-17T07:01:15.432Z,20.27
2023-07-17T07:02:15.383Z,20.25
2023-07-17T07:03:15.419Z,20.26
2023-07-17T07:04:15.617Z,20.30
2023-07-17T07:05:15.898Z,20.32
2023-07-17T07:06:15.723Z,20.44
2023-07-17T07:07:18.164Z,20.46
2023-07-17T07:08:15.328Z,20.56
2023-07-17T07:09:15.356Z,20.71
2023-07-17T07:10:15.342Z,20.73
2023-07-17T07:11:15.326Z,20.82
2023-07-17T07:12:15.398Z,20.88
2023-07-17T07:13:15.338Z,20.88
2023-07-17T07:14:15.326Z,20.95
2023-07-17T07:15:15.292Z,20.85
2023-07-17T07:16:15.395Z,20.90
2023-07-17T07:17:15.316Z,20.88
2023-07-17T07:18:15.426Z,21.05
2023-07-17T07:19:15.311Z,21.04
2023-07-17T07:20:15.292Z,21.01
2023-07-17T07:21:15.309Z,21.07
2023-07-17T07:22:15.300Z,21.26
2023-07-17T07:23:15.390Z,21.37
2023-07-17T07:24:15.241Z,21.32
2023-07-17T07:25:15.245Z,21.37
2023-07-17T07:26:15.304Z,21.55
2023-07-17T07:27:15.255Z,21.59
2023-07-17T07:28:15.252Z,21.67
2023-07-17T07:29:15.213Z,21.71
2023-07-17T07:30:15.249Z,21.62
2023-07-17T07:31:15.299Z,21.74
2023-07-17T07:32:15.234Z,21.66
2023-07-17T07:33:15.191Z,21.66
2023-07-17T07:34:15.234Z,21.75
2023-07-17T07:35:15.182Z,21.75
2023-07-17T07:36:15.410Z,21.77
2023-07-17T07:37:15.181Z,21.67
2023-07-17T07:38:15.168Z,21.73
2023-07-17T07:39:15.202Z,21.67
2023-07-17T07:40:15.178Z,21.73
2023-07-17T07:41:15.156Z,21.82
2023-07-17T07:42:15.153Z,21.77
2023-07-17T07:43:15.171Z,21.82
2023-07-17T07:44:15.157Z,22.00
2023-07-17T07:45:15.175Z,21.97
2023-07-17T07:46:15.338Z,22.00
2023-07-17T07:47:15.151Z,22.00
2023-07-17T07:48:15.143Z,22.09
2023-07-17T07:49:15.148Z,22.11
2023-07-17T07:50:15.143Z,22.31
2023-07-17T07:51:17.077Z,22.51
2023-07-17T07:52:16.143Z,22.71
2023-07-17T07:53:15.096Z,22.81
2023-07-17T07:54:21.445Z,22.98
2023-07-17T07:55:17.206Z,22.89
2023-07-17T07:56:15.377Z,22.78
2023-07-17T07:57:15.064Z,22.91
2023-07-17T07:58:15.090Z,22.96
2023-07-17T07:59:15.083Z,22.86
2023-07-17T08:00:15.052Z,22.89
2023-07-17T08:01:15.062Z,22.80
2023-07-17T08:02:15.132Z,22.70
2023-07-17T08:03:15.163Z,22.64
2023-07-17T08:04:15.132Z,22.48
2023-07-17T08:05:15.041Z,22.73
2023-07-17T08:06:15.096Z,22.78
2023-07-17T08:07:15.033Z,22.80
2023-07-17T08:08:15.020Z,22.99
2023-07-17T08:09:15.043Z,23.11
2023-07-17T08:10:15.018Z,23.29
2023-07-17T08:11:15.017Z,23.34
2023-07-17T08:12:15.010Z,23.42
2023-07-17T08:13:15.004Z,23.49
2023-07-17T08:14:15.007Z,23.70
2023-07-17T08:15:15.033Z,23.41
2023-07-17T08:16:15.025Z,23.15
2023-07-17T08:17:14.969Z,22.83
2023-07-17T08:18:15.021Z,22.40
2023-07-17T08:19:14.958Z,22.49
2023-07-17T08:20:15.017Z,22.58
2023-07-17T08:21:14.956Z,22.27
2023-07-17T08:22:15.959Z,22.09
2023-07-17T08:23:15.009Z,21.97
2023-07-17T08:24:14.942Z,22.18
2023-07-17T08:25:15.955Z,22.12
2023-07-17T08:26:15.004Z,22.22
2023-07-17T08:27:14.928Z,22.33
2023-07-17T08:28:14.942Z,22.46
2023-07-17T08:29:14.944Z,22.56
2023-07-17T08:30:14.921Z,22.53
2023-07-17T08:31:14.929Z,22.56
2023-07-17T08:32:14.896Z,22.62
2023-07-17T08:33:14.892Z,22.80
2023-07-17T08:34:14.909Z,22.76
2023-07-17T08:35:14.906Z,22.61
2023-07-17T08:36:14.878Z,22.62
2023-07-17T08:37:14.869Z,22.78
2023-07-17T08:38:14.894Z,22.81
2023-07-17T08:39:14.878Z,22.91
2023-07-17T08:40:14.888Z,22.89
2023-07-17T08:41:14.909Z,22.89
2023-07-17T08:42:14.856Z,22.91
2023-07-17T08:43:14.817Z,22.68
2023-07-17T08:44:14.831Z,22.96
2023-07-17T08:45:14.832Z,23.03
2023-07-17T08:46:14.854Z,23.15
2023-07-17T08:47:14.823Z,23.22
2023-07-17T08:48:14.831Z,23.25
2023-07-17T08:49:15.788Z,23.15
2023-07-17T08:50:14.819Z,23.36
2023-07-17T08:51:14.825Z,23.34
2023-07-17T08:52:14.775Z,23.44
2023-07-17T08:53:14.789Z,23.37
2023-07-17T08:54:28.464Z,23.26
2023-07-17T08:55:16.809Z,23.31
2023-07-17T08:56:14.781Z,23.25
2023-07-17T08:57:14.776Z,23.07
2023-07-17T08:58:14.758Z,22.99
2023-07-17T08:59:14.768Z,23.21
2023-07-17T09:00:14.775Z,23.10
2023-07-17T09:01:14.775Z,23.15
2023-07-17T09:02:14.729Z,23.36
2023-07-17T09:03:15.223Z,23.31
2023-07-17T09:04:14.708Z,23.17
2023-07-17T09:05:14.738Z,23.25
2023-07-17T09:06:14.702Z,23.44
2023-07-17T09:07:14.717Z,23.33
2023-07-17T09:08:14.708Z,23.41
2023-07-17T09:09:14.689Z,23.46
2023-07-17T09:10:14.702Z,23.44
2023-07-17T09:11:14.751Z,23.39
2023-07-17T09:12:14.689Z,23.41
2023-07-17T09:13:14.686Z,23.60
2023-07-17T09:14:14.663Z,23.74
2023-07-17T09:15:14.691Z,23.81
2023-07-17T09:16:15.492Z,24.06
2023-07-17T09:17:14.690Z,24.11
2023-07-17T09:18:14.656Z,24.07
2023-07-17T09:19:15.637Z,24.06
2023-07-17T09:20:14.649Z,24.07
2023-07-17T09:21:14.739Z,23.96
2023-07-17T09:22:15.601Z,23.96
2023-07-17T09:23:14.730Z,24.04
2023-07-17T09:24:14.667Z,24.03
2023-07-17T09:25:14.612Z,24.01
2023-07-17T09:26:14.610Z,24.15
2023-07-17T09:27:14.590Z,23.96
2023-07-17T09:28:14.603Z,23.70
2023-07-17T09:29:14.584Z,23.70
2023-07-17T09:30:14.577Z,23.63
2023-07-17T09:31:14.640Z,23.60
2023-07-17T09:32:14.576Z,23.37
2023-07-17T09:33:14.565Z,23.26
2023-07-17T09:34:14.600Z,23.10
2023-07-17T09:35:14.613Z,22.99
2023-07-17T09:36:14.547Z,23.07
2023-07-17T09:37:14.529Z,23.42
2023-07-17T09:38:14.556Z,23.71
2023-07-17T09:39:14.520Z,23.89
2023-07-17T09:40:14.559Z,24.33
2023-07-17T09:41:14.521Z,24.43
2023-07-17T09:42:14.515Z,24.66
2023-07-17T09:43:14.502Z,24.86
2023-07-17T09:44:14.488Z,25.21
2023-07-17T09:45:14.481Z,25.64
2023-07-17T09:46:15.547Z,26.03
2023-07-17T09:47:14.529Z,25.88
2023-07-17T09:48:14.467Z,26.03
2023-07-17T09:49:14.474Z,26.49
2023-07-17T09:50:14.493Z,26.08
2023-07-17T09:51:14.542Z,26.27
2023-07-17T09:52:14.449Z,26.70
2023-07-17T09:53:14.433Z,26.79
2023-07-17T09:54:14.450Z,27.12
2023-07-17T09:55:14.441Z,27.23
2023-07-17T09:56:14.453Z,26.98
2023-07-17T09:57:14.434Z,26.97
2023-07-17T09:58:14.402Z,27.13
2023-07-17T09:59:14.435Z,27.27
2023-07-17T10:00:14.540Z,27.37
2023-07-17T10:01:14.463Z,27.13
2023-07-17T10:02:14.429Z,27.20
2023-07-17T10:03:14.654Z,27.04
2023-07-17T10:04:14.528Z,27.57
2023-07-17T10:05:14.386Z,27.54
2023-07-17T10:06:14.398Z,27.57
2023-07-17T10:07:14.387Z,27.69
2023-07-17T10:08:14.454Z,27.85
2023-07-17T10:09:14.371Z,27.98
2023-07-17T10:10:14.463Z,28.38
2023-07-17T10:11:14.419Z,28.57
2023-07-17T10:12:14.352Z,28.00
2023-07-17T10:13:14.353Z,27.83
2023-07-17T10:14:14.346Z,27.63
2023-07-17T10:15:14.374Z,27.83
2023-07-17T10:16:14.408Z,27.66
2023-07-17T10:17:14.366Z,27.15
2023-07-17T10:18:14.401Z,27.19
2023-07-17T10:19:14.402Z,27.34
2023-07-17T10:20:14.365Z,26.67
2023-07-17T10:21:14.450Z,26.78
2023-07-17T10:22:14.327Z,26.94
2023-07-17T10:23:14.364Z,27.01
2023-07-17T10:24:14.300Z,27.64
2023-07-17T10:25:14.295Z,27.32
2023-07-17T10:26:14.292Z,27.98
2023-07-17T10:27:14.296Z,28.54
2023-07-17T10:28:14.298Z,29.63
2023-07-17T10:29:14.264Z,30.00
2023-07-17T10:30:14.283Z,30.28
2023-07-17T10:31:14.352Z,31.05
2023-07-17T10:32:14.267Z,31.52
2023-07-17T10:33:14.257Z,31.30
2023-07-17T10:34:14.263Z,31.95
2023-07-17T10:35:14.249Z,31.22
2023-07-17T10:36:14.277Z,29.56
2023-07-17T10:37:14.229Z,28.16
2023-07-17T10:38:14.231Z,27.27
2023-07-17T10:39:14.221Z,26.39
2023-07-17T10:40:14.308Z,26.31
2023-07-17T10:41:14.312Z,26.38
2023-07-17T10:42:14.222Z,26.34
2023-07-17T10:43:14.241Z,26.15
2023-07-17T10:44:19.496Z,26.01
2023-07-17T10:45:15.224Z,26.00
2023-07-17T10:46:14.216Z,26.11
2023-07-17T10:47:14.195Z,26.04
2023-07-17T10:48:14.351Z,27.75
2023-07-17T10:49:14.211Z,26.82
2023-07-17T10:50:14.219Z,25.93
2023-07-17T10:51:14.258Z,25.63
2023-07-17T10:52:14.193Z,25.45
2023-07-17T10:53:14.162Z,25.08
2023-07-17T10:54:14.163Z,26.76
2023-07-17T10:55:14.143Z,28.05
2023-07-17T10:56:14.202Z,29.27
2023-07-17T10:57:14.123Z,30.59
2023-07-17T10:58:14.127Z,31.26
2023-07-17T10:59:14.121Z,32.50
2023-07-17T11:00:14.130Z,31.67
2023-07-17T11:01:14.152Z,30.82
2023-07-17T11:02:14.266Z,29.52
2023-07-17T11:03:14.125Z,27.91
2023-07-17T11:04:14.168Z,26.73
2023-07-17T11:05:15.016Z,28.31
2023-07-17T11:06:14.084Z,28.44
2023-07-17T11:07:14.115Z,27.26
2023-07-17T11:08:14.144Z,26.34
2023-07-17T11:09:14.089Z,26.08
2023-07-17T11:10:14.102Z,26.15
2023-07-17T11:11:14.083Z,26.95
2023-07-17T11:12:14.108Z,27.83
2023-07-17T11:13:14.086Z,29.25
2023-07-17T11:14:14.055Z,30.78
2023-07-17T11:15:14.046Z,31.86
2023-07-17T11:16:14.036Z,32.77
2023-07-17T11:17:14.098Z,33.14
2023-07-17T11:18:14.089Z,33.57
2023-07-17T11:19:14.051Z,33.16
2023-07-17T11:20:14.015Z,33.16
2023-07-17T11:21:14.051Z,33.04
2023-07-17T11:22:14.056Z,32.35
2023-07-17T11:23:14.138Z,33.17
2023-07-17T11:24:14.014Z,33.52
2023-07-17T11:25:13.994Z,33.86
2023-07-17T11:26:14.023Z,34.44
2023-07-17T11:27:14.021Z,34.97
2023-07-17T11:28:14.013Z,34.64
2023-07-17T11:29:13.977Z,34.25
2023-07-17T11:30:14.015Z,33.54
2023-07-17T11:31:14.127Z,32.76
2023-07-17T11:32:14.132Z,31.26
2023-07-17T11:33:13.953Z,30.36
2023-07-17T11:34:13.958Z,29.10
2023-07-17T11:35:13.968Z,29.40
2023-07-17T11:36:13.967Z,28.56
2023-07-17T11:37:13.977Z,29.54
2023-07-17T11:38:13.945Z,30.77
2023-07-17T11:39:13.977Z,31.42
2023-07-17T11:40:13.948Z,32.39
2023-07-17T11:41:13.974Z,32.85
2023-07-17T11:42:13.938Z,33.01
2023-07-17T11:43:13.926Z,32.63
2023-07-17T11:44:13.913Z,33.06
2023-07-17T11:45:13.924Z,33.93
2023-07-17T11:46:13.966Z,34.40
2023-07-17T11:47:13.925Z,34.86
2023-07-17T11:48:13.923Z,34.34
2023-07-17T11:49:13.938Z,34.38
2023-07-17T11:50:13.920Z,34.92
2023-07-17T11:51:13.889Z,34.64
2023-07-17T11:52:13.921Z,34.95
2023-07-17T11:53:13.960Z,34.59
2023-07-17T11:54:13.897Z,33.49
2023-07-17T11:55:13.887Z,32.98
2023-07-17T11:56:13.877Z,33.35
2023-07-17T11:57:13.906Z,33.97
2023-07-17T11:58:13.881Z,34.56
2023-07-17T11:59:13.869Z,34.75
2023-07-17T12:00:13.860Z,35.21
2023-07-17T12:01:13.840Z,34.97
2023-07-17T12:02:13.894Z,35.01
2023-07-17T12:03:13.856Z,34.60
2023-07-17T12:04:13.913Z,33.52
2023-07-17T12:05:13.813Z,32.98
2023-07-17T12:06:13.835Z,32.50
2023-07-17T12:07:13.817Z,32.69
2023-07-17T12:08:13.856Z,33.27
2023-07-17T12:09:13.837Z,33.20
2023-07-17T12:10:13.889Z,33.48
2023-07-17T12:11:13.878Z,33.19
2023-07-17T12:12:13.845Z,32.82
2023-07-17T12:13:13.837Z,32.54
2023-07-17T12:14:13.828Z,32.19
2023-07-17T12:15:13.831Z,31.01
2023-07-17T12:16:13.841Z,29.86
2023-07-17T12:17:13.777Z,29.80
2023-07-17T12:18:13.777Z,29.74
2023-07-17T12:19:13.822Z,29.65
2023-07-17T12:20:13.882Z,29.06
2023-07-17T12:21:13.764Z,28.62
2023-07-17T12:23:14.890Z,28.62
2023-07-17T12:24:14.670Z,28.17
2023-07-17T12:25:13.750Z,28.01
2023-07-17T12:26:13.778Z,27.78
2023-07-17T12:27:13.737Z,27.64
2023-07-17T12:28:13.752Z,27.53
2023-07-17T12:29:13.728Z,27.22
2023-07-17T12:30:13.834Z,26.75
2023-07-17T12:31:13.716Z,26.86
2023-07-17T12:32:13.719Z,26.52
2023-07-17T12:33:13.772Z,26.75
2023-07-17T12:34:13.702Z,26.63
2023-07-17T12:35:13.722Z,26.75
2023-07-17T12:36:13.691Z,27.00
2023-07-17T12:37:13.674Z,27.01
2023-07-17T12:38:13.690Z,27.15
2023-07-17T12:39:13.704Z,27.12
2023-07-17T12:40:13.713Z,26.98
2023-07-17T12:41:13.690Z,27.12
2023-07-17T12:42:13.681Z,27.23
2023-07-17T12:43:13.672Z,26.90
2023-07-17T12:44:13.668Z,26.63
2023-07-17T12:45:13.653Z,26.53
2023-07-17T12:46:13.750Z,26.38
2023-07-17T12:47:13.648Z,26.28
2023-07-17T12:48:13.759Z,26.26
2023-07-17T12:49:13.653Z,26.07
2023-07-17T12:50:13.636Z,25.92
2023-07-17T12:51:13.672Z,26.00
2023-07-17T12:52:13.614Z,25.95
2023-07-17T12:53:13.608Z,26.15